Time;durP1;ratioP1;P1;durP2;ratioP2;P2;SDS_P1;SDS_P2;PMS_P1;PMS_P2;Temp;Humidity;BMP_temperature;BMP_pressure;BME280_temperature;BME280_humidity;BME280_pressure;Samples;Min_cycle;Max_cycle;Signal;HPM_P1;HPM_P2
2023/01/18 00:01:52;;;;;;;11.70;4.37;;;;;;;15.89;100.00;89613.44;5091627;28;20572;-64
2023/01/18 00:04:19;;;;;;;8.57;3.40;;;;;;;15.89;100.00;93586.38;5091272;28;20188;-64
2023/01/18 00:06:46;;;;;;;15.47;4.10;;;;;;;15.89;100.00;91599.72;5091613;28;20693;-63
2023/01/18 00:09:13;;;;;;;13.70;4.10;;;;;;;15.96;100.00;97245.31;5091568;28;20208;-63
2023/01/18 00:11:40;;;;;;;11.63;3.90;;;;;;;15.91;100.00;99891.59;5091579;28;20184;-64
2023/01/18 00:14:08;;;;;;;18.33;4.43;;;;;;;15.96;100.00;106213.34;5091478;28;20609;-64
2023/01/18 00:16:35;;;;;;;11.30;3.80;;;;;;;16.10;100.00;112230.53;5073659;28;20180;-63
2023/01/18 00:19:02;;;;;;;15.87;4.80;;;;;;;16.12;100.00;114566.81;5091163;28;20194;-64
2023/01/18 00:21:29;;;;;;;13.13;4.10;;;;;;;16.10;100.00;119235.19;5091223;28;20180;-63
2023/01/18 00:23:56;;;;;;;11.80;3.73;;;;;;;16.00;100.00;112545.66;5091356;28;20627;-63
2023/01/18 00:26:23;;;;;;;11.50;4.17;;;;;;;16.05;100.00;109556.47;5090721;28;20203;-62
2023/01/18 00:28:50;;;;;;;12.73;3.67;;;;;;;16.04;100.00;105893.38;5091246;28;20200;-63
2023/01/18 00:31:20;;;;;;;8.90;4.13;;;;;;;16.07;100.00;107229.41;5090956;28;20192;-63
2023/01/18 00:33:48;;;;;;;12.43;3.60;;;;;;;16.15;100.00;113906.72;5091190;28;20598;-62
2023/01/18 00:36:16;;;;;;;12.17;4.57;;;;;;;15.96;100.00;114536.69;5091053;28;20200;-63
2023/01/18 00:38:43;;;;;;;13.80;4.10;;;;;;;15.91;100.00;102216.00;5091292;28;20708;-63
2023/01/18 00:41:10;;;;;;;21.80;4.87;;;;;;;15.87;100.00;97230.44;5091294;28;20199;-63
2023/01/18 00:43:39;;;;;;;12.63;4.70;;;;;;;15.91;100.00;104209.59;5091506;28;20558;-63
2023/01/18 00:46:06;;;;;;;15.77;4.60;;;;;;;15.83;100.00;96560.59;5094828;28;20180;-63
2023/01/18 00:48:35;;;;;;;13.63;4.57;;;;;;;15.97;100.00;103887.84;5094702;28;20551;-63
2023/01/18 00:51:02;;;;;;;14.30;3.90;;;;;;;15.94;100.00;105544.69;5094693;28;20199;-63
2023/01/18 00:53:29;;;;;;;15.27;4.53;;;;;;;15.95;100.00;105545.59;5094647;28;20180;-63
2023/01/18 00:55:56;;;;;;;11.77;3.63;;;;;;;15.99;100.00;108214.91;5094704;28;20310;-63
2023/01/18 00:58:23;;;;;;;16.97;4.73;;;;;;;15.91;100.00;112528.47;5094643;28;20176;-63
2023/01/18 01:00:52;;;;;;;17.73;4.63;;;;;;;15.97;100.00;115873.34;5094657;28;20294;-63
2023/01/18 01:03:19;;;;;;;18.17;4.43;;;;;;;16.20;100.00;125606.06;5094676;28;20211;-64
2023/01/18 01:08:32;;;;;;;13.93;4.30;;;;;;;16.20;100.00;128282.38;5094467;28;20264;-63
2023/01/18 01:11:07;;;;;;;15.57;3.70;;;;;;;16.24;100.00;130301.66;5094902;28;20565;-63
2023/01/18 01:27:18;;;;;;;13.27;3.83;;;;;;;16.23;100.00;138933.75;5094337;28;20669;-63
2023/01/18 01:29:44;;;;;;;16.33;4.97;;;;;;;16.29;100.00;143835.69;5094391;28;20236;-63
2023/01/18 01:32:12;;;;;;;20.83;4.63;;;;;;;16.39;100.00;148428.84;5094376;28;20598;-63
2023/01/18 01:34:38;;;;;;;12.67;3.73;;;;;;;16.40;100.00;149655.13;5094047;28;20246;-63
2023/01/18 01:37:07;;;;;;;13.87;4.00;;;;;;;16.49;100.00;150180.88;5094171;28;20551;-63
2023/01/18 01:39:33;;;;;;;10.77;3.63;;;;;;;16.51;100.00;150185.97;5094233;28;20578;-63
2023/01/18 01:42:00;;;;;;;13.97;4.30;;;;;;;16.41;100.00;150163.13;5093849;28;20190;-63
2023/01/18 01:44:46;;;;;;;24.70;4.87;;;;;;;16.38;100.00;150154.19;5094061;28;20628;-64
2023/01/18 01:47:23;;;;;;;19.97;3.90;;;;;;;16.37;100.00;150151.69;5093728;28;20184;-63
2023/01/18 01:49:55;;;;;;;13.83;4.37;;;;;;;16.51;100.00;150187.22;5093953;28;20203;-63
2023/01/18 01:52:26;;;;;;;21.80;4.33;;;;;;;16.41;100.00;150161.84;5093695;28;20269;-63
2023/01/18 01:54:58;;;;;;;12.73;4.20;;;;;;;16.54;100.00;150194.84;5093646;28;20231;-63
2023/01/18 01:57:29;;;;;;;11.17;3.73;;;;;;;16.54;100.00;150194.84;5093273;28;20184;-63
2023/01/18 01:59:59;;;;;;;10.40;3.40;;;;;;;16.58;100.00;150203.78;5093702;28;20180;-63
2023/01/18 02:02:27;;;;;;;16.60;3.90;;;;;;;16.41;100.00;150163.13;5093403;28;20185;-63
2023/01/18 02:04:55;;;;;;;19.93;4.03;;;;;;;16.44;100.00;150170.72;5093629;28;20188;-62
2023/01/18 02:07:25;;;;;;;17.97;4.40;;;;;;;16.37;100.00;150152.97;5093277;28;20184;-63
2023/01/18 02:09:53;;;;;;;16.10;4.17;;;;;;;16.49;100.00;150180.88;5093185;28;20704;-64
2023/01/18 02:12:20;;;;;;;19.67;4.47;;;;;;;16.55;100.00;150197.38;5093572;28;20595;-64
2023/01/18 02:14:47;;;;;;;10.90;4.00;;;;;;;16.32;100.00;150140.25;5093142;28;20192;-64
2023/01/18 02:17:29;;;;;;;8.67;3.83;;;;;;;16.47;100.00;150177.06;5093445;28;20635;-63
2023/01/18 02:20:36;;;;;;;16.30;3.90;;;;;;;16.59;100.00;150207.56;5093044;28;20283;-63
2023/01/18 02:23:33;;;;;;;14.60;3.33;;;;;;;16.53;100.00;150192.31;5067699;28;20252;-63
2023/01/18 02:26:27;;;;;;;9.13;3.40;;;;;;;16.55;100.00;150197.38;5093287;28;20202;-62
2023/01/18 02:29:00;;;;;;;9.37;3.13;;;;;;;16.53;100.00;150191.03;5093073;28;20208;-63
2023/01/18 02:31:34;;;;;;;21.70;3.90;;;;;;;16.42;100.00;150165.63;5093175;28;20195;-63
2023/01/18 02:34:06;;;;;;;12.70;4.10;;;;;;;16.54;100.00;150194.84;5092989;28;20219;-64
2023/01/18 02:36:44;;;;;;;17.63;4.23;;;;;;;16.60;100.00;150210.13;5092667;28;20192;-62
2023/01/18 02:39:22;;;;;;;10.30;3.77;;;;;;;16.68;100.00;150230.44;5092571;28;20299;-63
2023/01/18 02:47:32;;;;;;;14.10;4.93;;;;;;;16.86;100.00;150276.19;5092660;28;20253;-63
2023/01/18 02:49:59;;;;;;;18.83;4.97;;;;;;;16.88;100.00;150280.00;5092719;28;20686;-63
2023/01/18 02:52:40;;;;;;;17.50;4.40;;;;;;;16.75;100.00;150248.25;5092505;28;20195;-64
2023/01/18 02:55:14;;;;;;;10.87;3.63;;;;;;;16.86;100.00;150276.19;5092462;28;20226;-63
2023/01/18 02:57:40;;;;;;;10.93;3.30;;;;;;;16.92;100.00;150290.16;5092577;28;20674;-63
2023/01/18 03:00:16;;;;;;;17.47;3.80;;;;;;;16.93;100.00;150291.44;5092713;28;20567;-63
2023/01/18 03:02:45;;;;;;;12.23;3.90;;;;;;;16.84;100.00;150271.13;5092250;28;20227;-63
2023/01/18 03:05:12;;;;;;;11.70;4.07;;;;;;;16.77;100.00;150252.03;5092267;28;20227;-62
2023/01/18 03:07:47;;;;;;;10.73;3.77;;;;;;;16.68;100.00;150230.44;5091910;28;20232;-64
2023/01/18 03:10:17;;;;;;;15.83;4.50;;;;;;;16.80;100.00;150259.69;5092121;28;20203;-63
2023/01/18 03:12:53;;;;;;;13.43;4.00;;;;;;;16.81;100.00;150263.47;5074443;28;20558;-62
2023/01/18 03:15:28;;;;;;;9.37;3.57;;;;;;;16.82;100.00;150266.00;5092050;28;20187;-63
2023/01/18 03:17:57;;;;;;;11.03;3.67;;;;;;;16.70;100.00;150235.53;5092425;28;20634;-63
2023/01/18 03:20:29;;;;;;;13.23;3.50;;;;;;;16.70;100.00;150235.53;5092522;28;20187;-63
2023/01/18 03:25:49;;;;;;;12.23;3.90;;;;;;;16.71;100.00;150236.81;5092025;28;20558;-63
2023/01/18 03:34:01;;;;;;;10.07;3.33;;;;;;;16.79;100.00;150257.13;5091990;28;20195;-63
2023/01/18 03:36:35;;;;;;;8.40;3.87;;;;;;;16.69;100.00;150233.00;5092059;28;20665;-64
2023/01/18 03:39:06;;;;;;;16.57;4.33;;;;;;;16.71;100.00;150238.09;5091558;28;20195;-64
2023/01/18 03:41:37;;;;;;;15.50;4.17;;;;;;;16.64;100.00;150220.28;5091601;28;20188;-62
2023/01/18 03:44:10;;;;;;;13.97;4.10;;;;;;;16.70;100.00;150234.25;5091854;28;20610;-63
2023/01/18 03:46:42;;;;;;;9.43;3.90;;;;;;;16.67;100.00;150226.66;5091531;28;20191;-63
2023/01/18 03:49:11;;;;;;;26.20;4.33;;;;;;;16.53;100.00;150192.31;5091430;28;20218;-63
2023/01/18 03:51:48;;;;;;;18.67;4.50;;;;;;;16.52;100.00;150189.75;5091776;28;20191;-64
2023/01/18 03:54:20;;;;;;;16.07;3.90;;;;;;;16.48;100.00;150179.59;5091481;28;20219;-63
2023/01/18 03:56:53;;;;;;;11.53;4.00;;;;;;;16.46;100.00;150174.53;5091790;28;20666;-64
2023/01/18 03:59:20;;;;;;;15.03;4.07;;;;;;;16.40;100.00;150159.28;5091488;28;20191;-62
2023/01/18 04:01:48;;;;;;;13.20;3.73;;;;;;;16.40;100.00;150159.28;5091499;28;20203;-63
2023/01/18 04:04:15;;;;;;;17.97;4.50;;;;;;;16.47;100.00;150177.06;5091329;28;20309;-63
2023/01/18 04:06:42;;;;;;;15.77;4.17;;;;;;;16.40;100.00;150159.28;5091549;28;20190;-63
2023/01/18 04:09:10;;;;;;;9.70;4.10;;;;;;;16.49;100.00;150182.16;5091541;28;20583;-64
2023/01/18 04:11:37;;;;;;;10.83;3.70;;;;;;;16.30;100.00;150135.16;5091558;28;20261;-62
2023/01/18 04:14:04;;;;;;;11.17;4.30;;;;;;;16.37;100.00;150151.69;5073619;28;20527;-63
2023/01/18 04:16:31;;;;;;;16.87;3.80;;;;;;;16.40;100.00;150159.28;5091506;28;20521;-63
2023/01/18 04:19:00;;;;;;;10.97;3.27;;;;;;;16.34;100.00;150145.31;5092202;28;20184;-63
2023/01/18 04:21:26;;;;;;;14.47;4.20;;;;;;;16.24;100.00;150118.66;5095779;28;20206;-63
2023/01/18 04:23:53;;;;;;;13.83;3.30;;;;;;;16.27;100.00;150127.56;5095377;28;20187;-63
2023/01/18 04:26:20;;;;;;;14.60;3.87;;;;;;;16.28;100.00;150130.09;5095631;28;20184;-63
2023/01/18 04:28:47;;;;;;;16.07;4.63;;;;;;;16.20;100.00;150109.78;5095227;28;20218;-64
2023/01/18 04:31:14;;;;;;;11.07;4.00;;;;;;;16.27;100.00;150126.28;5077127;28;20627;-63
2023/01/18 04:33:41;;;;;;;24.20;4.67;;;;;;;16.31;100.00;150137.69;5095085;28;20195;-62
2023/01/18 04:36:09;;;;;;;13.90;4.63;;;;;;;16.36;100.00;150150.41;5095206;28;20180;-63
2023/01/18 04:38:36;;;;;;;15.00;4.20;;;;;;;16.38;100.00;150154.19;5095091;28;20187;-63
2023/01/18 04:41:03;;;;;;;15.13;4.47;;;;;;;16.34;100.00;150144.03;5095322;28;20219;-63
2023/01/18 04:43:30;;;;;;;20.60;4.27;;;;;;;16.32;100.00;150138.97;5094918;28;20184;-62
2023/01/18 04:45:57;;;;;;;16.17;3.80;;;;;;;16.23;100.00;150117.41;5095289;28;20188;-62
2023/01/18 04:48:25;;;;;;;16.47;4.43;;;;;;;16.30;100.00;150133.88;5094909;28;20195;-63
2023/01/18 04:50:52;;;;;;;14.20;3.83;;;;;;;16.27;100.00;150126.28;5095078;28;20212;-63
2023/01/18 04:53:21;;;;;;;16.43;4.33;;;;;;;16.39;100.00;150156.72;5094509;28;20203;-63
2023/01/18 04:55:48;;;;;;;15.23;4.17;;;;;;;16.46;100.00;150175.78;5094731;28;20180;-63
2023/01/18 04:58:15;;;;;;;17.40;4.17;;;;;;;16.52;100.00;150188.47;5095006;28;20499;-63
2023/01/18 05:00:42;;;;;;;13.10;4.20;;;;;;;16.32;100.00;150138.97;5094859;28;20200;-63
2023/01/18 05:03:11;;;;;;;17.70;4.63;;;;;;;16.28;100.00;150128.81;5094856;28;20229;-62
2023/01/18 05:05:38;;;;;;;17.43;4.23;;;;;;;16.35;100.00;150146.59;5094597;28;20184;-63
2023/01/18 05:08:05;;;;;;;12.27;4.67;;;;;;;16.35;100.00;150146.59;5094475;28;20191;-62
2023/01/18 05:10:33;;;;;;;20.27;4.67;;;;;;;16.43;100.00;150168.16;5094515;28;20298;-63
2023/01/18 05:13:00;;;;;;;10.37;3.90;;;;;;;16.42;100.00;150165.63;5094455;28;20555;-63
2023/01/18 05:15:27;;;;;;;15.27;4.37;;;;;;;16.50;100.00;150184.72;5094297;28;20180;-63
2023/01/18 05:17:54;;;;;;;13.93;3.43;;;;;;;16.23;100.00;150117.41;5094641;28;20562;-63
2023/01/18 05:20:21;;;;;;;17.13;4.20;;;;;;;16.52;100.00;150189.75;5094498;28;20184;-62
2023/01/18 05:22:47;;;;;;;15.07;4.33;;;;;;;16.46;100.00;150174.53;5094415;28;20192;-63
2023/01/18 05:25:14;;;;;;;20.53;3.67;;;;;;;16.51;100.00;150187.22;5094814;28;20535;-63
2023/01/18 05:27:43;;;;;;;11.43;4.00;;;;;;;16.39;100.00;150156.72;5094440;28;20607;-63
2023/01/18 05:30:10;;;;;;;17.57;4.30;;;;;;;16.35;100.00;150146.59;5094291;28;20548;-63
2023/01/18 05:32:37;;;;;;;14.57;4.07;;;;;;;16.35;100.00;150147.84;5094226;28;20585;-62
2023/01/18 05:35:05;;;;;;;12.07;3.83;;;;;;;16.45;100.00;150172.00;5094043;28;20555;-63
2023/01/18 05:37:32;;;;;;;18.33;4.90;;;;;;;16.37;100.00;150151.69;5093861;28;20195;-62
2023/01/18 05:40:00;;;;;;;17.13;4.60;;;;;;;16.36;100.00;150149.13;5094188;28;20184;-63
2023/01/18 05:42:26;;;;;;;24.30;5.37;;;;;;;16.18;100.00;150103.41;5093804;28;20200;-63
2023/01/18 05:44:55;;;;;;;14.20;5.13;;;;;;;16.30;100.00;150133.88;5094131;28;20642;-63
2023/01/18 05:47:21;;;;;;;12.43;4.70;;;;;;;16.22;100.00;150113.56;5094187;28;20638;-63
2023/01/18 05:49:48;;;;;;;18.87;4.50;;;;;;;16.17;100.00;150100.84;5093568;28;20223;-64
2023/01/18 05:52:15;;;;;;;17.67;4.50;;;;;;;16.09;100.00;150080.56;5093558;28;20191;-64
2023/01/18 05:54:42;;;;;;;17.47;5.30;;;;;;;16.08;100.00;150078.06;5093861;28;20278;-63
2023/01/18 05:57:09;;;;;;;16.00;4.33;;;;;;;16.08;100.00;150078.06;5093557;28;20284;-62
2023/01/18 05:59:36;;;;;;;16.37;4.40;;;;;;;15.99;100.00;150057.75;5093386;28;20181;-63
2023/01/18 06:02:05;;;;;;;14.40;3.83;;;;;;;16.18;100.00;150104.69;5093819;28;20192;-63
2023/01/18 06:04:32;;;;;;;11.90;4.10;;;;;;;16.18;100.00;150104.69;5093763;28;20654;-63
2023/01/18 06:06:58;;;;;;;10.53;4.30;;;;;;;16.18;100.00;150103.41;5093351;28;20278;-62
2023/01/18 06:09:25;;;;;;;29.30;4.30;;;;;;;16.19;100.00;150105.97;5093607;28;20670;-63
2023/01/18 06:11:52;;;;;;;19.33;5.23;;;;;;;16.24;100.00;150118.66;5075604;28;20196;-63
2023/01/18 06:14:19;;;;;;;14.70;4.10;;;;;;;16.26;100.00;150123.72;5093241;28;20199;-64
2023/01/18 06:16:46;;;;;;;14.03;4.27;;;;;;;16.10;100.00;150083.09;5093222;28;20184;-63
2023/01/18 06:19:14;;;;;;;12.80;4.83;;;;;;;16.26;100.00;150125.00;5093047;28;20540;-63
2023/01/18 06:21:41;;;;;;;17.67;4.53;;;;;;;16.26;100.00;150123.72;5093090;28;20279;-62
2023/01/18 06:24:08;;;;;;;17.20;4.97;;;;;;;16.20;100.00;150108.50;5093242;28;20524;-63
2023/01/18 06:26:35;;;;;;;10.57;3.90;;;;;;;16.18;100.00;150103.41;5092855;28;20200;-63
2023/01/18 06:29:02;;;;;;;14.30;4.33;;;;;;;16.32;100.00;150138.97;5093128;28;20558;-62
2023/01/18 06:31:29;;;;;;;20.07;4.37;;;;;;;16.31;100.00;150136.44;5092629;28;20302;-63
2023/01/18 06:33:56;;;;;;;12.17;4.27;;;;;;;16.31;100.00;150137.69;5092663;28;20274;-63
2023/01/18 06:36:24;;;;;;;16.90;5.03;;;;;;;16.37;100.00;150152.97;5092737;28;20188;-64
2023/01/18 06:38:51;;;;;;;16.83;4.53;;;;;;;16.41;100.00;150163.13;5092588;28;20184;-63
2023/01/18 06:41:21;;;;;;;16.43;4.97;;;;;;;16.50;100.00;150184.72;5092678;28;20607;-63
2023/01/18 06:43:50;;;;;;;15.43;4.17;;;;;;;16.45;100.00;150173.28;5092366;28;20200;-62
2023/01/18 06:46:18;;;;;;;15.77;5.87;;;;;;;16.66;100.00;150224.09;5092603;28;20188;-64
2023/01/18 06:48:45;;;;;;;23.17;7.03;;;;;;;16.65;100.00;150222.81;5092568;28;20630;-63
2023/01/18 06:51:12;;;;;;;24.23;9.10;;;;;;;16.63;100.00;150217.78;5092656;28;20230;-63
2023/01/18 06:53:40;;;;;;;20.97;5.50;;;;;;;16.57;100.00;150201.19;5092571;28;20626;-64
2023/01/18 06:56:10;;;;;;;18.83;7.70;;;;;;;16.63;100.00;150216.50;5092113;28;20185;-64
2023/01/18 06:58:37;;;;;;;16.07;5.00;;;;;;;16.60;100.00;150208.84;5092305;28;20195;-65
2023/01/18 07:01:05;;;;;;;19.30;4.17;;;;;;;16.66;100.00;150225.38;5092501;28;20191;-64
2023/01/18 07:03:32;;;;;;;16.93;3.53;;;;;;;16.59;100.00;150206.34;5092346;28;20634;-63
2023/01/18 07:06:01;;;;;;;11.47;4.27;;;;;;;16.76;100.00;150249.53;5091823;28;20282;-64
2023/01/18 07:08:30;;;;;;;16.77;4.60;;;;;;;16.86;100.00;150276.19;5092182;28;20188;-63
2023/01/18 07:11:04;;;;;;;13.50;4.10;;;;;;;16.78;100.00;150254.56;5092078;28;20204;-63
2023/01/18 07:13:33;;;;;;;15.10;4.27;;;;;;;16.84;100.00;150271.13;5092426;28;20503;-64
2023/01/18 07:16:00;;;;;;;16.73;4.83;;;;;;;17.11;100.00;150338.41;5092064;28;20184;-64
2023/01/18 07:18:29;;;;;;;15.10;4.30;;;;;;;17.19;100.00;150357.47;5086793;28;20234;-62
2023/01/18 07:20:57;;;;;;;19.17;5.23;;;;;;;17.39;100.00;150408.31;5091557;28;20188;-65
2023/01/18 07:23:28;;;;;;;20.47;5.80;;;;;;;17.83;100.00;150518.91;5093066;28;20566;-63
2023/01/18 07:26:01;;;;;;;24.50;5.43;;;;;;;17.82;100.00;150516.41;5092786;28;20226;-64
2023/01/18 07:28:31;;;;;;;22.77;4.73;;;;;;;18.12;100.00;150591.41;5092014;28;20635;-64
2023/01/18 07:30:59;;;;;;;16.67;4.97;;;;;;;18.10;100.00;150586.28;5086222;28;20563;-65
2023/01/18 07:33:26;;;;;;;23.07;4.50;;;;;;;17.62;100.00;150465.53;5072108;28;20196;-64
2023/01/18 07:35:53;;;;;;;17.20;4.40;;;;;;;17.85;100.00;150522.72;5071644;28;20268;-65
2023/01/18 07:38:21;;;;;;;18.73;5.00;;;;;;;17.62;100.00;150465.53;5071709;28;20623;-64
2023/01/18 07:40:48;;;;;;;22.97;5.27;;;;;;;17.65;100.00;150473.19;5071460;28;20268;-65
2023/01/18 07:43:17;;;;;;;24.27;4.50;;;;;;;17.68;100.00;150482.06;5071371;28;20255;-63
2023/01/18 07:45:52;;;;;;;14.67;4.70;;;;;;;18.02;100.00;150565.97;5071549;28;20185;-64
2023/01/18 07:48:19;;;;;;;13.60;4.60;;;;;;;17.86;100.00;150525.28;5071622;28;20283;-65
2023/01/18 07:50:53;;;;;;;13.07;4.50;;;;;;;17.88;100.00;150530.34;5071490;28;20236;-64
2023/01/18 07:53:20;;;;;;;14.43;4.47;;;;;;;17.94;100.00;150545.63;5070880;28;20280;-65
2023/01/18 07:55:47;;;;;;;17.37;3.77;;;;;;;18.09;100.00;150585.00;5071160;28;20269;-63
2023/01/18 07:58:18;;;;;;;10.07;4.30;;;;;;;18.22;100.00;150616.78;5070814;28;20195;-63
2023/01/18 08:00:45;;;;;;;18.20;4.43;;;;;;;18.33;100.00;150643.53;5070815;28;20285;-63
2023/01/18 08:03:14;;;;;;;17.27;4.80;;;;;;;18.52;100.00;150693.16;5070930;28;20189;-63
2023/01/18 08:05:42;;;;;;;12.70;4.33;;;;;;;18.49;100.00;150685.50;5070969;28;20289;-64
2023/01/18 08:08:12;;;;;;;17.27;4.70;;;;;;;18.16;100.00;150602.81;5071123;28;20560;-63
2023/01/18 08:10:39;;;;;;;13.43;4.13;;;;;;;17.94;100.00;150545.63;5070916;28;20205;-64
2023/01/18 08:13:07;;;;;;;16.83;4.63;;;;;;;18.16;100.00;150601.56;5068257;28;20199;-64
2023/01/18 08:15:36;;;;;;;19.30;5.03;;;;;;;18.14;100.00;150597.75;5091821;28;20188;-63
2023/01/18 08:18:04;;;;;;;23.00;5.60;;;;;;;18.26;100.00;150628.25;5091548;28;20187;-63
2023/01/18 08:20:32;;;;;;;19.87;4.90;;;;;;;18.37;100.00;150653.69;5091617;28;20180;-64
2023/01/18 08:23:08;;;;;;;18.43;5.23;;;;;;;18.09;100.00;150585.00;5091469;28;20184;-63
2023/01/18 08:25:34;;;;;;;22.23;5.97;;;;;;;18.12;100.00;150592.63;5088715;28;20290;-63
2023/01/18 08:28:02;;;;;;;16.83;4.57;;;;;;;18.24;100.00;150623.19;5092375;28;20576;-65
2023/01/18 08:30:33;;;;;;;10.93;4.37;;;;;;;19.15;100.00;150852.16;5091607;28;20211;-66
2023/01/18 08:33:03;;;;;;;21.37;5.60;;;;;;;19.93;100.00;151048.19;5091990;28;20210;-64
2023/01/18 08:35:31;;;;;;;15.77;5.30;;;;;;;20.38;100.00;151161.56;5091589;28;20228;-64
2023/01/18 08:37:59;;;;;;;20.50;7.00;;;;;;;20.63;100.00;151222.66;5091508;28;20646;-65
2023/01/18 08:40:28;;;;;;;11.03;4.70;;;;;;;20.25;100.00;151127.09;5091234;28;20187;-66
2023/01/18 08:42:56;;;;;;;13.93;4.33;;;;;;;20.43;100.00;151173.00;5090895;28;20195;-64
2023/01/18 08:45:24;;;;;;;15.23;4.67;;;;;;;20.53;100.00;151198.50;5091116;28;20602;-63
2023/01/18 08:47:56;;;;;;;16.33;4.80;;;;;;;20.58;100.00;151211.19;5091594;28;20188;-64
2023/01/18 08:50:24;;;;;;;17.73;4.83;;;;;;;20.97;100.00;151309.28;5091055;28;20261;-64
2023/01/18 08:52:52;;;;;;;24.43;4.80;;;;;;;21.26;100.00;151383.22;5091271;28;20195;-63
2023/01/18 08:55:20;;;;;;;14.73;4.22;;;;;;;21.62;100.00;151472.44;5073002;28;20188;-64
2023/01/18 08:57:47;;;;;;;15.07;3.73;;;;;;;21.77;100.00;151510.66;5090915;28;20198;-64
2023/01/18 09:00:15;;;;;;;11.37;3.73;;;;;;;21.76;100.00;151509.44;5091115;28;20183;-65
2023/01/18 09:02:42;;;;;;;16.93;4.30;;;;;;;22.06;100.00;151584.69;5091029;28;20273;-66
2023/01/18 09:05:10;;;;;;;21.30;4.68;;;;;;;22.59;100.00;151717.28;5092566;28;20180;-65
2023/01/18 09:07:38;;;;;;;12.02;4.43;;;;;;;23.28;100.00;151890.84;5075575;28;20236;-65
2023/01/18 09:10:07;;;;;;;14.60;4.68;;;;;;;23.35;100.00;151908.69;5075020;28;20267;-65
2023/01/18 09:12:34;;;;;;;13.02;4.15;;;;;;;23.42;100.00;151926.56;5074439;28;20185;-65
2023/01/18 09:15:02;;;;;;;10.27;3.40;;;;;;;23.48;100.00;151941.91;5069732;28;20203;-65
2023/01/18 09:17:29;;;;;;;15.70;4.15;;;;;;;23.85;100.00;152036.34;5094357;28;20213;-65
2023/01/18 09:19:56;;;;;;;19.92;4.07;;;;;;;23.63;100.00;151980.22;5094611;28;20654;-65
2023/01/18 09:22:24;;;;;;;6.50;3.35;;;;;;;23.82;100.00;152028.69;5076560;28;20665;-64
2023/01/18 09:24:52;;;;;;;11.27;4.03;;;;;;;23.51;100.00;151950.84;5079881;28;20619;-64
2023/01/18 09:27:19;;;;;;;10.38;3.30;;;;;;;23.53;100.00;151954.69;5056901;28;20535;-64
2023/01/18 09:29:50;;;;;;;7.18;3.92;;;;;;;23.67;100.00;151990.44;5074435;28;20557;-66
2023/01/18 09:32:20;;;;;;;13.50;4.03;;;;;;;24.38;100.00;152170.47;5074137;28;20240;-65
2023/01/18 09:34:49;;;;;;;10.63;3.83;;;;;;;23.65;100.00;151985.31;5074612;28;20224;-65
2023/01/18 09:37:16;;;;;;;8.88;2.92;;;;;;;23.64;100.00;151984.03;5073996;28;20187;-64
2023/01/18 09:39:43;;;;;;;9.50;3.80;;;;;;;23.28;100.00;151892.13;5056717;28;20590;-65
2023/01/18 09:42:19;;;;;;;9.35;3.28;;;;;;;23.27;100.00;151888.28;5074119;28;20177;-64
2023/01/18 09:44:50;;;;;;;10.73;4.50;;;;;;;23.02;100.00;151825.75;5057208;28;20192;-65
2023/01/18 09:47:21;;;;;;;9.68;3.47;;;;;;;22.88;100.00;151790.03;5091718;28;20587;-65
2023/01/18 09:49:55;;;;;;;17.10;3.95;;;;;;;22.73;100.00;151753.06;5093966;28;20612;-66
2023/01/18 09:52:36;;;;;;;12.65;3.67;;;;;;;22.85;100.00;151783.66;5094843;28;20293;-66
2023/01/18 09:55:14;;;;;;;7.38;2.78;;;;;;;22.24;100.00;151630.56;5094768;28;20185;-64
2023/01/18 09:58:01;;;;;;;14.27;3.90;;;;;;;22.05;100.00;151582.13;5094467;28;20278;-65
2023/01/18 10:00:31;;;;;;;12.02;2.97;;;;;;;21.43;100.00;151426.56;5093875;28;20194;-64
2023/01/18 10:03:02;;;;;;;18.97;3.90;;;;;;;21.09;100.00;151339.84;5093769;28;20184;-63
2023/01/18 10:05:33;;;;;;;9.73;3.10;;;;;;;20.85;100.00;151278.72;5094008;28;20665;-64
2023/01/18 10:08:06;;;;;;;16.70;3.87;;;;;;;20.80;100.00;151265.97;5093910;28;20214;-63
2023/01/18 10:10:37;;;;;;;5.67;3.47;;;;;;;20.77;100.00;151258.34;5093488;28;20263;-63
2023/01/18 10:13:27;;;;;;;13.87;3.70;;;;;;;21.08;100.00;151336.06;5093310;28;20192;-64
2023/01/18 10:15:54;;;;;;;10.43;3.40;;;;;;;20.74;100.00;151250.72;5093416;28;20180;-63
2023/01/18 10:18:21;;;;;;;16.73;3.27;;;;;;;21.13;100.00;151350.09;5081745;28;20258;-64
2023/01/18 10:20:56;;;;;;;10.50;4.00;;;;;;;20.83;100.00;151273.66;5079274;28;20201;-60
2023/01/18 10:23:28;;;;;;;10.07;3.20;;;;;;;21.46;100.00;151432.97;5092917;28;20242;-60
2023/01/18 10:26:01;;;;;;;13.33;3.60;;;;;;;21.81;100.00;151520.91;5083434;28;20196;-61
2023/01/18 10:28:43;;;;;;;10.80;2.77;;;;;;;21.54;100.00;151452.06;5088601;28;20559;-61
2023/01/18 10:31:24;;;;;;;10.07;3.40;;;;;;;21.67;100.00;151485.22;5056777;28;20247;-60
2023/01/18 10:33:56;;;;;;;11.03;3.90;;;;;;;21.25;100.00;151380.72;5072969;28;20196;-62
2023/01/18 10:36:31;;;;;;;5.77;2.70;;;;;;;20.77;100.00;151258.34;5083942;28;20192;-60
2023/01/18 10:39:03;;;;;;;6.00;3.17;;;;;;;20.67;100.00;151234.13;5084934;28;20585;-60
2023/01/18 10:41:34;;;;;;;7.03;3.07;;;;;;;21.11;100.00;151344.97;5088262;28;20202;-60
2023/01/18 10:44:03;;;;;;;10.93;3.43;;;;;;;20.74;100.00;151250.72;5092986;28;20275;-61
2023/01/18 10:46:30;;;;;;;11.53;3.07;;;;;;;20.36;100.00;151155.22;5080315;28;20627;-61
2023/01/18 10:48:58;;;;;;;12.37;3.40;;;;;;;20.27;100.00;151132.22;5072039;28;20231;-60
2023/01/18 10:51:30;;;;;;;16.33;3.70;;;;;;;20.22;100.00;151119.50;5072693;28;20208;-60
2023/01/18 10:53:57;;;;;;;11.43;4.30;;;;;;;20.38;100.00;151160.28;5071976;28;20188;-60
2023/01/18 10:56:26;;;;;;;14.37;3.23;;;;;;;20.67;100.00;151234.13;5072100;28;20255;-61
2023/01/18 10:58:57;;;;;;;14.07;3.07;;;;;;;20.43;100.00;151174.28;5072149;28;20659;-61
2023/01/18 11:01:27;;;;;;;12.87;3.73;;;;;;;20.32;100.00;151146.31;5072105;28;20196;-61
2023/01/18 11:03:58;;;;;;;9.27;3.53;;;;;;;20.25;100.00;151128.38;5071613;28;20189;-61
2023/01/18 11:06:25;;;;;;;9.27;3.93;;;;;;;20.63;100.00;151222.66;5071528;28;20185;-60
2023/01/18 11:08:52;;;;;;;12.87;3.90;;;;;;;20.96;100.00;151308.00;5071951;28;20204;-60
2023/01/18 11:12:32;;;;;;;11.90;3.27;;;;;;;20.84;100.00;151277.44;5083787;28;20232;-61
2023/01/18 11:14:24;;;;;;;10.97;3.57;;;;;;;20.46;100.00;151181.91;5071889;28;20279;-61
2023/01/18 11:17:01;;;;;;;7.50;3.57;;;;;;;20.32;100.00;151145.03;5087907;28;20196;-60
2023/01/18 11:19:28;;;;;;;16.50;4.47;;;;;;;20.64;100.00;151226.50;5092252;28;20264;-60
2023/01/18 11:21:56;;;;;;;14.70;3.47;;;;;;;20.61;100.00;151218.88;5083418;28;20192;-60
2023/01/18 11:24:27;;;;;;;17.73;4.10;;;;;;;20.61;100.00;151217.59;5071319;28;20219;-61
2023/01/18 11:26:58;;;;;;;12.07;3.90;;;;;;;20.50;100.00;151190.81;5074807;28;20555;-60
2023/01/18 11:29:29;;;;;;;18.53;3.53;;;;;;;20.57;100.00;151207.41;5071789;28;20181;-61
2023/01/18 11:32:05;;;;;;;16.47;3.53;;;;;;;20.65;100.00;151227.78;5072033;28;20629;-61
2023/01/18 11:34:35;;;;;;;13.77;4.43;;;;;;;20.51;100.00;151194.66;5090237;28;20245;-61
2023/01/18 11:37:03;;;;;;;7.47;3.43;;;;;;;20.12;100.00;151094.00;5097383;28;20195;-61
2023/01/18 11:39:33;;;;;;;7.40;3.23;;;;;;;20.03;100.00;151072.34;5109017;28;20192;-60
2023/01/18 11:42:20;;;;;;;9.90;3.90;;;;;;;19.91;100.00;151041.81;5080482;28;20726;-60
2023/01/18 11:44:53;;;;;;;12.60;3.77;;;;;;;20.20;100.00;151114.41;5071491;28;20193;-61
2023/01/18 11:47:28;;;;;;;13.40;3.70;;;;;;;20.21;100.00;151118.22;5071438;28;20636;-62
2023/01/18 11:50:02;;;;;;;11.50;3.57;;;;;;;20.03;100.00;151072.34;5072079;28;20218;-60
2023/01/18 11:52:42;;;;;;;16.40;3.90;;;;;;;20.11;100.00;151092.78;5072083;28;20208;-60